Time;durP1;ratioP1;P1;durP2;ratioP2;P2;SDS_P1;SDS_P2;PMS_P1;PMS_P2;Temp;Humidity;BMP_temperature;BMP_pressure;BME280_temperature;BME280_humidity;BME280_pressure;Samples;Min_cycle;Max_cycle;Signal;HPM_P1;HPM_P2
2022/09/06 00:01:32;;;;;;;;;;;;;;;23.95;48.73;101182.00;5126905;27;19928;-39
2022/09/06 00:03:58;;;;;;;;;;;;;;;23.94;48.75;101211.78;5125946;27;19927;-39
2022/09/06 00:06:24;;;;;;;;;;;;;;;23.94;48.92;101224.88;5125281;27;20298;-39
2022/09/06 00:08:49;;;;;;;;;;;;;;;23.94;48.83;101231.25;5123152;27;19924;-39
2022/09/06 00:11:15;;;;;;;;;;;;;;;23.94;48.92;101242.38;5126056;27;20361;-39
2022/09/06 00:13:41;;;;;;;;;;;;;;;23.95;48.74;101257.09;5122083;27;19967;-39
2022/09/06 00:16:07;;;;;;;;;;;;;;;23.93;48.86;101260.22;5121259;27;19994;-39
2022/09/06 00:18:33;;;;;;;;;;;;;;;23.95;48.77;101243.19;5122466;27;19924;-39
2022/09/06 00:20:59;;;;;;;;;;;;;;;23.93;48.82;101240.72;5123972;27;20281;-39
2022/09/06 00:23:24;;;;;;;;;;;;;;;23.93;48.76;101226.81;5129791;27;19927;-39
2022/09/06 00:25:50;;;;;;;;;;;;;;;23.93;48.78;101221.25;5124768;27;19924;-39
2022/09/06 00:28:15;;;;;;;;;;;;;;;23.94;48.92;101249.91;5125587;27;20341;-39
2022/09/06 00:30:41;;;;;;;;;;;;;;;23.93;48.98;101239.91;5125827;28;20080;-39
2022/09/06 00:33:06;;;;;;;;;;;;;;;23.94;48.80;101252.69;5123878;27;19927;-39
2022/09/06 00:35:32;;;;;;;;;;;;;;;23.94;48.91;101247.13;5123955;27;19924;-39
2022/09/06 00:37:58;;;;;;;;;;;;;;;23.93;48.96;101263.00;5120815;27;20388;-39
2022/09/06 00:40:24;;;;;;;;;;;;;;;23.93;48.82;101264.94;5119700;27;20018;-39
2022/09/06 00:42:50;;;;;;;;;;;;;;;23.93;48.90;101268.56;5130925;27;19923;-39
2022/09/06 00:45:16;;;;;;;;;;;;;;;23.93;48.96;101270.50;5130287;27;20391;-39
2022/09/06 00:47:41;;;;;;;;;;;;;;;23.93;48.94;101281.63;5121871;27;19924;-39
2022/09/06 00:50:07;;;;;;;;;;;;;;;23.93;48.84;101288.03;5127259;27;20280;-39
2022/09/06 00:52:32;;;;;;;;;;;;;;;23.93;48.86;101292.75;5123571;27;19928;-39
2022/09/06 00:54:58;;;;;;;;;;;;;;;23.93;48.97;101292.75;5122124;27;19928;-39
2022/09/06 00:57:25;;;;;;;;;;;;;;;23.93;48.97;101295.53;5119318;27;20282;-39
2022/09/06 00:59:51;;;;;;;;;;;;;;;23.94;48.82;101308.31;5127095;27;20018;-39
2022/09/06 01:02:18;;;;;;;;;;;;;;;23.93;48.91;101320.59;5121120;27;20294;-39
2022/09/06 01:04:43;;;;;;;;;;;;;;;23.92;48.81;101303.06;5128176;27;19924;-39
2022/09/06 01:07:26;;;;;;;;;;;;;;;23.92;49.06;101308.63;5126134;27;20285;-39
2022/09/06 01:09:59;;;;;;;;;;;;;;;23.93;48.99;101304.72;5126119;27;20016;-39
2022/09/06 01:12:35;;;;;;;;;;;;;;;23.92;48.71;101297.50;5120867;27;19973;-39
2022/09/06 01:15:04;;;;;;;;;;;;;;;23.92;48.96;101288.31;5125531;27;20014;-39
2022/09/06 01:17:50;;;;;;;;;;;;;;;23.93;48.98;101287.19;5122794;27;20746;-39
2022/09/06 01:20:27;;;;;;;;;;;;;;;23.92;48.92;101288.31;5123405;27;19971;-39
2022/09/06 01:23:13;;;;;;;;;;;;;;;23.91;48.99;101287.47;5130620;27;19923;-39
2022/09/06 01:28:45;;;;;;;;;;;;;;;23.92;48.95;101278.03;5180259;27;19925;-39
2022/09/06 01:31:30;;;;;;;;;;;;;;;23.91;48.99;101270.78;5150014;27;20478;-39
2022/09/06 01:34:16;;;;;;;;;;;;;;;23.92;48.86;101269.69;5149826;27;19976;-39
2022/09/06 01:36:42;;;;;;;;;;;;;;;23.92;48.90;101257.72;5150831;27;19958;-39
2022/09/06 01:39:29;;;;;;;;;;;;;;;23.91;48.95;101253.28;5152691;27;19967;-39
2022/09/06 01:41:55;;;;;;;;;;;;;;;23.91;48.79;101244.94;5163445;27;20269;-39
2022/09/06 01:44:20;;;;;;;;;;;;;;;23.91;48.83;101240.19;5160489;27;19931;-39
2022/09/06 01:46:55;;;;;;;;;;;;;;;23.91;48.82;101247.72;5168240;27;19923;-40
2022/09/06 01:49:33;;;;;;;;;;;;;;;23.91;48.84;101245.75;5149115;27;19968;-39
2022/09/06 01:52:16;;;;;;;;;;;;;;;23.91;49.02;101256.88;5167135;27;20019;-39
2022/09/06 01:55:02;;;;;;;;;;;;;;;23.92;48.86;101264.13;5167404;27;20353;-39
2022/09/06 01:57:31;;;;;;;;;;;;;;;23.91;48.86;101270.78;5148936;27;20378;-39
2022/09/06 02:00:02;;;;;;;;;;;;;;;23.90;49.00;101266.38;5146913;27;20009;-39
2022/09/06 02:02:39;;;;;;;;;;;;;;;23.92;48.65;101263.28;5149398;27;20029;-39
2022/09/06 02:05:05;;;;;;;;;;;;;;;23.90;48.99;101249.69;5164844;27;19975;-39
2022/09/06 02:07:31;;;;;;;;;;;;;;;23.91;48.91;101244.94;5167224;27;20388;-39
2022/09/06 02:09:58;;;;;;;;;;;;;;;23.90;49.07;101252.47;5167411;27;19923;-39
2022/09/06 02:12:24;;;;;;;;;;;;;;;23.91;48.98;101250.50;5165406;27;19962;-39
2022/09/06 02:14:51;;;;;;;;;;;;;;;23.90;49.02;101252.47;5147528;27;19927;-39
2022/09/06 02:17:19;;;;;;;;;;;;;;;23.91;48.96;101236.59;5148141;27;19965;-39
2022/09/06 02:19:46;;;;;;;;;;;;;;;23.91;49.01;101253.28;5148775;27;20397;-39
2022/09/06 02:22:13;;;;;;;;;;;;;;;23.90;48.96;101240.50;5168567;27;19974;-39
2022/09/06 02:24:39;;;;;;;;;;;;;;;23.90;49.02;101249.69;5166182;27;19966;-39
2022/09/06 02:27:05;;;;;;;;;;;;;;;23.91;49.02;101233.81;5166245;27;20014;-39
2022/09/06 02:29:31;;;;;;;;;;;;;;;23.90;49.03;101234.94;5166956;27;19974;-39
2022/09/06 02:31:59;;;;;;;;;;;;;;;23.90;48.83;101221.03;5165400;27;19929;-39
2022/09/06 02:34:24;;;;;;;;;;;;;;;23.90;48.94;101204.34;5163477;27;20030;-39
2022/09/06 02:36:50;;;;;;;;;;;;;;;23.90;49.02;101207.13;5167194;27;19939;-39
2022/09/06 02:39:15;;;;;;;;;;;;;;;23.90;48.92;101207.97;5156489;27;19934;-39
2022/09/06 02:41:41;;;;;;;;;;;;;;;23.91;48.85;101214.34;5154556;27;19933;-39
2022/09/06 02:44:07;;;;;;;;;;;;;;;23.91;48.85;101231.03;5153533;27;20309;-39
2022/09/06 02:46:32;;;;;;;;;;;;;;;23.90;48.94;101229.38;5134180;27;19923;-39
2022/09/06 02:48:58;;;;;;;;;;;;;;;23.91;49.03;101228.25;5151520;27;19923;-39
2022/09/06 02:51:23;;;;;;;;;;;;;;;23.89;49.00;101216.63;5153601;27;19923;-39
2022/09/06 02:53:49;;;;;;;;;;;;;;;23.90;48.98;101207.97;5149514;27;19931;-39
2022/09/06 02:56:15;;;;;;;;;;;;;;;23.90;49.00;101201.56;5152893;27;19924;-39
2022/09/06 02:58:40;;;;;;;;;;;;;;;23.90;48.99;101185.72;5153313;27;19931;-39
2022/09/06 03:01:06;;;;;;;;;;;;;;;23.90;49.00;101184.88;5151885;27;20449;-39
2022/09/06 03:03:31;;;;;;;;;;;;;;;23.89;49.08;101183.25;5153171;27;19931;-39
2022/09/06 03:05:57;;;;;;;;;;;;;;;23.91;48.88;101183.75;5149752;27;19931;-38
2022/09/06 03:08:25;;;;;;;;;;;;;;;23.89;48.99;101175.72;5153506;27;19937;-39
2022/09/06 03:10:52;;;;;;;;;;;;;;;23.90;49.03;101168.19;5153065;27;20353;-39
2022/09/06 03:13:18;;;;;;;;;;;;;;;23.89;48.99;101167.38;5153986;27;20013;-39
2022/09/06 03:15:55;;;;;;;;;;;;;;;23.90;49.01;101157.06;5151944;27;20010;-39
2022/09/06 03:18:20;;;;;;;;;;;;;;;23.89;48.91;101152.66;5134968;27;19955;-39
2022/09/06 03:20:48;;;;;;;;;;;;;;;23.89;49.05;101161.00;5150423;27;19930;-40
2022/09/06 03:23:13;;;;;;;;;;;;;;;23.89;48.87;101161.00;5130388;27;19972;-39
2022/09/06 03:25:39;;;;;;;;;;;;;;;23.89;49.00;101161.00;5147109;27;19923;-39
2022/09/06 03:28:05;;;;;;;;;;;;;;;23.89;48.88;101161.00;5151722;27;19923;-39
2022/09/06 03:30:30;;;;;;;;;;;;;;;23.89;49.03;101167.38;5150108;27;19930;-39
2022/09/06 03:32:58;;;;;;;;;;;;;;;23.88;49.00;101165.72;5151666;27;19930;-39
2022/09/06 03:35:28;;;;;;;;;;;;;;;23.89;48.93;101166.56;5147691;27;19953;-39
2022/09/06 03:37:53;;;;;;;;;;;;;;;23.89;48.97;101177.69;5151931;27;19931;-39
2022/09/06 03:40:19;;;;;;;;;;;;;;;23.88;49.02;101179.63;5153346;27;20373;-40
2022/09/06 03:42:45;;;;;;;;;;;;;;;23.88;49.06;101182.41;5149550;27;19923;-39
2022/09/06 03:45:11;;;;;;;;;;;;;;;23.88;49.03;101174.06;5151888;27;19980;-39
2022/09/06 03:47:36;;;;;;;;;;;;;;;23.88;48.98;101179.63;5151858;27;19931;-39
2022/09/06 03:50:02;;;;;;;;;;;;;;;23.89;49.02;101183.25;5148280;27;19927;-42
2022/09/06 03:52:27;;;;;;;;;;;;;;;23.90;48.91;101179.31;5151713;27;19943;-40
2022/09/06 03:54:53;;;;;;;;;;;;;;;23.88;49.05;101174.06;5146883;27;20425;-39
2022/09/06 03:57:19;;;;;;;;;;;;;;;23.89;49.01;101177.69;5149751;27;19937;-40
2022/09/06 03:59:44;;;;;;;;;;;;;;;23.88;49.01;101184.38;5151514;27;19923;-39
2022/09/06 04:02:10;;;;;;;;;;;;;;;23.88;48.97;101173.25;5152367;27;20384;-39
2022/09/06 04:04:35;;;;;;;;;;;;;;;23.88;48.92;101182.41;5152286;27;19931;-39
2022/09/06 04:07:01;;;;;;;;;;;;;;;23.88;48.89;101174.06;5147848;27;19946;-39
2022/09/06 04:09:26;;;;;;;;;;;;;;;23.87;48.94;101172.41;5151806;27;19923;-39
2022/09/06 04:11:52;;;;;;;;;;;;;;;23.87;48.90;101177.97;5149942;27;19937;-39
2022/09/06 04:14:17;;;;;;;;;;;;;;;23.88;49.00;101181.59;5152155;27;20259;-39
2022/09/06 04:16:43;;;;;;;;;;;;;;;23.87;48.98;101179.94;5150915;27;19927;-39
2022/09/06 04:19:09;;;;;;;;;;;;;;;23.87;48.87;101191.88;5149705;27;19927;-39
2022/09/06 04:21:34;;;;;;;;;;;;;;;23.88;48.85;101184.38;5149165;27;19931;-39
2022/09/06 04:24:00;;;;;;;;;;;;;;;23.88;48.87;101181.59;5147919;27;20367;-39
2022/09/06 04:26:25;;;;;;;;;;;;;;;23.88;49.02;101181.59;5150765;27;19923;-39
2022/09/06 04:28:51;;;;;;;;;;;;;;;23.87;49.05;101166.84;5151606;27;19930;-39
2022/09/06 04:31:16;;;;;;;;;;;;;;;23.87;49.01;101175.19;5150482;27;19927;-39
2022/09/06 04:33:42;;;;;;;;;;;;;;;23.89;48.94;101169.34;5150260;27;19930;-40
2022/09/06 04:36:08;;;;;;;;;;;;;;;23.88;49.05;101176.84;5150026;27;20615;-39
2022/09/06 04:38:35;;;;;;;;;;;;;;;23.87;48.95;101166.84;5150843;27;20383;-39
2022/09/06 04:41:00;;;;;;;;;;;;;;;23.87;49.04;101166.84;5150187;27;19966;-40
2022/09/06 04:43:26;;;;;;;;;;;;;;;23.88;48.96;101176.84;5153361;27;19946;-39
2022/09/06 04:45:51;;;;;;;;;;;;;;;23.87;48.87;101172.41;5148868;27;20190;-39
2022/09/06 04:48:17;;;;;;;;;;;;;;;23.87;49.15;101175.19;5152855;27;19923;-40
2022/09/06 04:50:42;;;;;;;;;;;;;;;23.87;49.04;101174.38;5149431;27;19930;-39
2022/09/06 04:53:09;;;;;;;;;;;;;;;23.87;48.89;101175.19;5151851;27;20371;-39
2022/09/06 04:55:35;;;;;;;;;;;;;;;23.87;48.75;101179.94;5147708;27;20034;-39
2022/09/06 04:58:02;;;;;;;;;;;;;;;23.88;48.76;101178.81;5148308;27;20056;-39
2022/09/06 05:00:28;;;;;;;;;;;;;;;23.87;48.94;101183.53;5132089;27;19970;-39
2022/09/06 05:02:53;;;;;;;;;;;;;;;23.87;48.94;101185.50;5150169;27;19967;-39
2022/09/06 05:05:19;;;;;;;;;;;;;;;23.74;48.43;101201.84;5146297;27;20403;-42
2022/09/06 05:07:44;;;;;;;;;;;;;;;23.81;48.59;101195.91;5147804;27;19934;-39
2022/09/06 05:10:10;;;;;;;;;;;;;;;23.85;48.80;101208.06;5150242;27;19932;-38
2022/09/06 05:12:35;;;;;;;;;;;;;;;23.87;48.83;101207.75;5150638;27;19946;-39
2022/09/06 05:15:04;;;;;;;;;;;;;;;23.87;48.78;101205.78;5149866;27;20268;-38
2022/09/06 05:17:29;;;;;;;;;;;;;;;23.89;48.94;101208.28;5149855;27;19923;-39
2022/09/06 05:19:55;;;;;;;;;;;;;;;23.89;48.80;101205.50;5150071;27;20339;-40
2022/09/06 05:22:20;;;;;;;;;;;;;;;23.90;48.81;101204.34;5144216;27;19930;-40
2022/09/06 05:24:46;;;;;;;;;;;;;;;23.91;48.55;101209.59;5144227;27;19960;-38
2022/09/06 05:27:13;;;;;;;;;;;;;;;23.80;49.14;101216.50;5140613;27;19938;-47
2022/09/06 05:29:38;;;;;;;;;;;;;;;23.83;48.99;101210.31;5139641;27;19962;-41
2022/09/06 05:32:04;;;;;;;;;;;;;;;23.88;48.75;101210.25;5129729;27;19970;-39
2022/09/06 05:34:29;;;;;;;;;;;;;;;23.86;49.26;101211.66;5147718;27;19931;-39
2022/09/06 05:36:55;;;;;;;;;;;;;;;23.91;49.03;101214.34;5149185;27;19927;-41
2022/09/06 05:39:20;;;;;;;;;;;;;;;23.92;49.02;101214.06;5142405;27;20400;-42
2022/09/06 05:41:46;;;;;;;;;;;;;;;23.93;49.06;101207.34;5145523;27;19967;-39
2022/09/06 05:44:12;;;;;;;;;;;;;;;23.94;49.06;101208.19;5142462;27;19971;-41
2022/09/06 05:46:45;;;;;;;;;;;;;;;23.94;49.20;101211.78;5127022;27;20034;-42
2022/09/06 05:49:11;;;;;;;;;;;;;;;23.96;49.29;101209.53;5143685;27;19974;-40
2022/09/06 05:51:37;;;;;;;;;;;;;;;23.96;49.37;101211.47;5148747;27;19966;-43
2022/09/06 05:54:02;;;;;;;;;;;;;;;23.96;49.35;101209.53;5143335;27;20443;-41
2022/09/06 05:56:28;;;;;;;;;;;;;;;23.96;49.46;101206.75;5143932;27;19923;-43
2022/09/06 05:58:54;;;;;;;;;;;;;;;23.96;49.56;101215.09;5134372;27;20379;-42
2022/09/06 06:01:20;;;;;;;;;;;;;;;23.97;49.82;101211.19;5132829;27;19950;-42
2022/09/06 06:03:49;;;;;;;;;;;;;;;23.98;49.74;101214.78;5139602;27;19923;-42
2022/09/06 06:06:15;;;;;;;;;;;;;;;23.98;49.60;101217.56;5124766;27;19931;-41
2022/09/06 06:08:40;;;;;;;;;;;;;;;23.98;49.76;101218.38;5142370;27;19931;-45
2022/09/06 06:11:06;;;;;;;;;;;;;;;23.98;49.77;101217.56;5139829;27;19930;-44
2022/09/06 06:13:38;;;;;;;;;;;;;;;23.98;51.00;101206.44;5141127;27;20272;-43
2022/09/06 06:16:04;;;;;;;;;;;;;;;23.68;53.70;101214.19;5135847;27;19934;-47
2022/09/06 06:18:30;;;;;;;;;;;;;;;23.69;54.02;101212.22;5142404;27;20054;-46
2022/09/06 06:21:16;;;;;;;;;;;;;;;23.54;54.69;101207.75;5127537;27;19939;-49
2022/09/06 06:23:42;;;;;;;;;;;;;;;23.47;54.88;101198.94;5118355;27;20061;-42
2022/09/06 06:26:08;;;;;;;;;;;;;;;23.70;54.18;101206.34;5137551;27;20018;-44
2022/09/06 06:28:34;;;;;;;;;;;;;;;23.84;53.35;101203.63;5124704;27;19933;-45
2022/09/06 06:31:00;;;;;;;;;;;;;;;23.92;53.08;101200.16;5146991;27;19967;-45
2022/09/06 06:33:26;;;;;;;;;;;;;;;23.95;52.96;101190.34;5142708;27;20022;-44
2022/09/06 06:36:00;;;;;;;;;;;;;;;23.97;52.70;101193.66;5120390;27;19977;-42
2022/09/06 06:38:33;;;;;;;;;;;;;;;23.98;52.50;101193.34;5127416;27;20011;-45
2022/09/06 06:40:59;;;;;;;;;;;;;;;24.01;52.50;101189.13;5140353;27;20444;-43
2022/09/06 06:43:35;;;;;;;;;;;;;;;24.01;52.32;101192.75;5115635;27;20388;-41
2022/09/06 06:46:02;;;;;;;;;;;;;;;24.02;52.14;101188.81;5142167;27;20027;-43
2022/09/06 06:48:27;;;;;;;;;;;;;;;24.02;52.22;101183.25;5144770;27;19923;-42
2022/09/06 06:50:53;;;;;;;;;;;;;;;24.02;52.36;101183.25;5127175;27;20446;-43
2022/09/06 06:53:19;;;;;;;;;;;;;;;24.02;52.47;101183.25;5136310;27;19938;-43
2022/09/06 06:55:45;;;;;;;;;;;;;;;24.03;52.37;101176.56;5139906;27;19923;-42
2022/09/06 06:58:11;;;;;;;;;;;;;;;23.92;53.93;101188.16;5115894;27;20194;-41
2022/09/06 07:00:36;;;;;;;;;;;;;;;24.04;52.77;101182.94;5128587;27;19931;-42
2022/09/06 07:03:03;;;;;;;;;;;;;;;24.06;52.82;101191.81;5122798;27;19935;-45
2022/09/06 07:05:29;;;;;;;;;;;;;;;24.06;52.41;101182.66;5130162;27;19923;-46
2022/09/06 07:08:14;;;;;;;;;;;;;;;24.06;52.43;101183.47;5109197;27;20058;-43
2022/09/06 07:10:40;;;;;;;;;;;;;;;24.07;52.35;101190.69;5133953;27;19931;-44
2022/09/06 07:13:06;;;;;;;;;;;;;;;24.07;52.37;101190.69;5129388;27;20397;-42
2022/09/06 07:15:31;;;;;;;;;;;;;;;24.07;52.00;101187.06;5126848;27;19995;-45
2022/09/06 07:17:57;;;;;;;;;;;;;;;24.07;52.19;101184.28;5134235;27;19943;-41
2022/09/06 07:20:24;;;;;;;;;;;;;;;24.08;52.26;101180.38;5131528;27;19931;-41
2022/09/06 07:22:59;;;;;;;;;;;;;;;24.07;52.32;101179.53;5121323;27;20280;-42
2022/09/06 07:25:44;;;;;;;;;;;;;;;24.08;52.18;101183.16;5111682;27;19924;-42
2022/09/06 07:28:10;;;;;;;;;;;;;;;24.09;52.22;101179.22;5137792;27;20011;-40
2022/09/06 07:30:36;;;;;;;;;;;;;;;24.09;52.31;101182.00;5138738;27;20621;-42
2022/09/06 07:33:04;;;;;;;;;;;;;;;24.10;52.26;101172.56;5130086;27;20402;-42
2022/09/06 07:35:29;;;;;;;;;;;;;;;24.08;52.08;101172.84;5111911;27;19966;-41
2022/09/06 07:37:55;;;;;;;;;;;;;;;24.08;52.07;101183.97;5135226;27;19984;-42
2022/09/06 07:40:22;;;;;;;;;;;;;;;24.09;52.10;101176.44;5133118;27;20030;-43
2022/09/06 07:42:47;;;;;;;;;;;;;;;24.10;52.38;101183.69;5133929;27;20026;-43
2022/09/06 07:45:13;;;;;;;;;;;;;;;24.09;52.33;101177.25;5132468;27;19935;-42
2022/09/06 07:47:38;;;;;;;;;;;;;;;24.09;52.20;101182.84;5127498;27;19928;-42
2022/09/06 07:50:24;;;;;;;;;;;;;;;24.10;52.06;101184.50;5108882;27;19938;-44
2022/09/06 07:53:10;;;;;;;;;;;;;;;24.11;51.77;101188.09;5111218;27;19927;-42
2022/09/06 07:55:42;;;;;;;;;;;;;;;24.11;51.96;101185.31;5132273;27;19922;-41
2022/09/06 07:58:08;;;;;;;;;;;;;;;24.11;51.93;101188.94;5136178;27;19962;-42
2022/09/06 08:00:33;;;;;;;;;;;;;;;24.12;51.96;101192.53;5144714;27;19923;-40
2022/09/06 08:02:59;;;;;;;;;;;;;;;24.12;51.67;101187.78;5133531;27;19926;-40
2022/09/06 08:05:25;;;;;;;;;;;;;;;24.15;51.71;101189.13;5135813;27;19930;-41
2022/09/06 08:08:11;;;;;;;;;;;;;;;24.13;51.36;101194.19;5116521;27;19930;-40
2022/09/06 08:10:56;;;;;;;;;;;;;;;24.14;51.84;101184.72;5112607;27;20282;-43
2022/09/06 08:13:22;;;;;;;;;;;;;;;24.14;51.37;101179.16;5125279;27;19942;-40
2022/09/06 08:15:47;;;;;;;;;;;;;;;24.13;51.01;101186.66;5117320;27;19953;-42
2022/09/06 08:18:13;;;;;;;;;;;;;;;24.13;50.93;101185.81;5133038;27;19956;-42
2022/09/06 08:20:38;;;;;;;;;;;;;;;24.13;51.80;101183.88;5130842;27;19934;-41
2022/09/06 08:23:08;;;;;;;;;;;;;;;24.13;51.08;101189.44;5129961;27;19931;-42
2022/09/06 08:25:33;;;;;;;;;;;;;;;24.13;51.38;101183.88;5130784;27;20052;-41
2022/09/06 08:27:59;;;;;;;;;;;;;;;24.15;51.58;101180.78;5136999;27;19927;-41
2022/09/06 08:30:26;;;;;;;;;;;;;;;24.15;51.58;101178.84;5134017;27;19938;-41
2022/09/06 08:32:51;;;;;;;;;;;;;;;24.14;51.89;101176.38;5126383;27;19970;-42
2022/09/06 08:35:17;;;;;;;;;;;;;;;24.15;51.50;101172.44;5128413;27;19934;-41
2022/09/06 08:37:43;;;;;;;;;;;;;;;24.15;51.20;101180.78;5118288;27;19984;-42
2022/09/06 08:40:09;;;;;;;;;;;;;;;24.15;51.31;101176.06;5126783;27;20270;-42
2022/09/06 08:42:36;;;;;;;;;;;;;;;24.16;51.09;101176.88;5129606;27;20436;-40
2022/09/06 08:45:07;;;;;;;;;;;;;;;24.14;50.88;101179.16;5127811;27;20581;-41
2022/09/06 08:47:33;;;;;;;;;;;;;;;24.13;50.83;101180.25;5127179;27;20018;-41
2022/09/06 08:50:00;;;;;;;;;;;;;;;24.13;50.69;101178.31;5131023;27;19957;-40
2022/09/06 08:52:45;;;;;;;;;;;;;;;24.15;51.26;101170.47;5128412;27;20030;-40
2022/09/06 08:55:40;;;;;;;;;;;;;;;24.12;51.33;101171.09;5111771;27;19950;-41
2022/09/06 08:58:10;;;;;;;;;;;;;;;24.13;50.76;101160.78;5130386;27;20018;-41
2022/09/06 09:00:35;;;;;;;;;;;;;;;24.13;50.82;101172.75;5137047;27;20021;-40
2022/09/06 09:03:04;;;;;;;;;;;;;;;24.13;50.93;101160.78;5129091;27;19983;-42
2022/09/06 09:05:30;;;;;;;;;;;;;;;24.13;51.01;101160.78;5119646;27;20018;-40
2022/09/06 09:08:13;;;;;;;;;;;;;;;24.12;51.10;101162.75;5127940;27;20050;-40
2022/09/06 09:10:40;;;;;;;;;;;;;;;24.13;50.98;101160.78;5114363;27;20018;-41
2022/09/06 09:13:06;;;;;;;;;;;;;;;24.12;50.93;101154.41;5116818;27;20515;-40
2022/09/06 09:15:32;;;;;;;;;;;;;;;24.13;50.77;101146.88;5112967;27;20033;-41
2022/09/06 09:18:02;;;;;;;;;;;;;;;24.13;50.92;101149.66;5132709;27;20584;-40
2022/09/06 09:20:27;;;;;;;;;;;;;;;24.13;50.84;101155.22;5134149;27;19931;-41
2022/09/06 09:22:53;;;;;;;;;;;;;;;24.11;50.61;101155.53;5130552;27;19934;-42
2022/09/06 09:25:20;;;;;;;;;;;;;;;24.12;50.71;101150.78;5134197;27;19923;-40
2022/09/06 09:27:46;;;;;;;;;;;;;;;24.12;50.73;101153.56;5133598;27;19959;-43
2022/09/06 09:30:11;;;;;;;;;;;;;;;24.12;50.61;101148.84;5123849;27;21428;-42
2022/09/06 09:32:57;;;;;;;;;;;;;;;24.12;50.64;101145.22;5110148;27;20170;-43
2022/09/06 09:35:29;;;;;;;;;;;;;;;24.13;50.60;101147.69;5125075;27;20340;-40
2022/09/06 09:38:05;;;;;;;;;;;;;;;24.12;50.44;101140.50;5108586;27;20015;-41
2022/09/06 09:40:40;;;;;;;;;;;;;;;24.13;50.50;101135.75;5102796;27;19971;-41
2022/09/06 09:43:10;;;;;;;;;;;;;;;24.13;50.52;101130.19;5110554;27;19958;-41
2022/09/06 09:45:35;;;;;;;;;;;;;;;24.15;50.46;101130.72;5100740;27;19937;-40
2022/09/06 09:48:17;;;;;;;;;;;;;;;24.15;50.56;101119.56;5121169;27;19931;-40
2022/09/06 09:50:43;;;;;;;;;;;;;;;24.13;50.46;101119.88;5111821;27;20029;-43
2022/09/06 09:53:09;;;;;;;;;;;;;;;24.13;50.42;101121.84;5128505;27;20353;-42
2022/09/06 09:55:34;;;;;;;;;;;;;;;24.13;50.52;101119.88;5132127;27;20022;-41
2022/09/06 09:58:00;;;;;;;;;;;;;;;24.15;50.82;101111.22;5136220;27;19931;-40
2022/09/06 10:00:42;;;;;;;;;;;;;;;24.13;50.47;101102.34;5129944;27;19931;-41
2022/09/06 10:03:11;;;;;;;;;;;;;;;24.13;50.32;101102.34;5133768;27;19927;-42
2022/09/06 10:05:37;;;;;;;;;;;;;;;24.12;50.33;101100.72;5134044;27;20402;-40
2022/09/06 10:08:02;;;;;;;;;;;;;;;24.12;50.46;101092.38;5140745;27;20202;-43
2022/09/06 10:10:45;;;;;;;;;;;;;;;24.11;50.32;101083.19;5137513;27;19931;-42
2022/09/06 10:13:20;;;;;;;;;;;;;;;24.11;50.38;101093.50;5114517;27;19946;-41
2022/09/06 10:15:46;;;;;;;;;;;;;;;24.11;50.46;101111.03;5128533;27;20014;-42
2022/09/06 10:21:17;;;;;;;;;;;;;;;24.13;50.34;101127.41;5147552;27;20305;-39
2022/09/06 10:24:03;;;;;;;;;;;;;;;24.14;50.50;101131.84;5146398;27;20014;-39
2022/09/06 10:26:50;;;;;;;;;;;;;;;24.11;50.69;101124.94;5119440;27;20511;-39
2022/09/06 10:29:36;;;;;;;;;;;;;;;24.13;51.59;101116.25;5128550;27;20431;-40
2022/09/06 10:32:21;;;;;;;;;;;;;;;24.16;50.74;101116.47;5135022;27;20050;-41
2022/09/06 10:35:05;;;;;;;;;;;;;;;24.16;50.47;101107.31;5132564;27;20018;-41
2022/09/06 10:37:50;;;;;;;;;;;;;;;24.14;50.60;101115.97;5146364;27;19946;-39
2022/09/06 10:40:20;;;;;;;;;;;;;;;24.15;50.65;101106.50;5121067;27;19927;-39
2022/09/06 10:42:47;;;;;;;;;;;;;;;24.19;50.33;101117.81;5133424;27;19930;-41
2022/09/06 10:45:19;;;;;;;;;;;;;;;24.19;50.40;101126.16;5121965;27;20083;-41
2022/09/06 10:48:03;;;;;;;;;;;;;;;24.17;50.32;101120.91;5136514;27;20334;-41
2022/09/06 10:50:37;;;;;;;;;;;;;;;24.16;50.34;101108.13;5139064;27;20026;-39
2022/09/06 10:53:12;;;;;;;;;;;;;;;24.17;50.44;101118.13;5134868;27;20425;-41
2022/09/06 10:55:39;;;;;;;;;;;;;;;24.22;50.47;101112.47;5125566;27;19937;-39
2022/09/06 10:58:04;;;;;;;;;;;;;;;24.22;50.28;101108.84;5133646;27;20064;-40
2022/09/06 11:00:46;;;;;;;;;;;;;;;24.22;50.40;101111.63;5145321;27;19923;-39
2022/09/06 11:03:17;;;;;;;;;;;;;;;24.19;50.35;101096.38;5147751;27;19946;-40
2022/09/06 11:06:06;;;;;;;;;;;;;;;24.20;50.29;101100.00;5138535;27;19959;-39
2022/09/06 11:08:51;;;;;;;;;;;;;;;24.19;50.33;101090.81;5127996;27;20048;-39
2022/09/06 11:11:38;;;;;;;;;;;;;;;24.18;50.34;101096.69;5134216;27;20261;-39
2022/09/06 11:14:04;;;;;;;;;;;;;;;24.20;50.40;101088.84;5142091;27;19971;-39
2022/09/06 11:16:32;;;;;;;;;;;;;;;24.19;50.30;101088.03;5149726;27;20359;-39
2022/09/06 11:19:02;;;;;;;;;;;;;;;24.18;50.30;101083.63;5144423;27;20018;-40
2022/09/06 11:21:32;;;;;;;;;;;;;;;24.18;50.30;101089.19;5125623;27;20054;-39
2022/09/06 11:24:02;;;;;;;;;;;;;;;24.19;50.39;101099.16;5142555;27;19974;-41
2022/09/06 11:26:47;;;;;;;;;;;;;;;24.20;50.40;101091.63;5143105;27;20038;-39
2022/09/06 11:29:18;;;;;;;;;;;;;;;24.21;50.27;101105.22;5130265;27;20395;-39
2022/09/06 11:31:52;;;;;;;;;;;;;;;24.22;50.27;101104.13;5115232;27;19941;-40
2022/09/06 11:34:39;;;;;;;;;;;;;;;24.21;50.25;101093.28;5105186;27;20422;-41
2022/09/06 11:37:06;;;;;;;;;;;;;;;24.23;50.26;101099.38;5124513;27;20044;-40
2022/09/06 11:39:33;;;;;;;;;;;;;;;24.22;50.20;101098.56;5127656;27;20368;-39
2022/09/06 11:42:39;;;;;;;;;;;;;;;24.23;50.27;101096.59;5119854;27;19992;-40
2022/09/06 11:47:44;;;;;;;;;;;;;;;24.23;50.35;101094.63;5148454;27;19941;-41
2022/09/06 11:50:26;;;;;;;;;;;;;;;24.25;50.27;101094.31;5135397;27;20010;-41
2022/09/06 11:53:11;;;;;;;;;;;;;;;24.25;50.18;101089.56;5144416;27;20013;-40
2022/09/06 11:55:39;;;;;;;;;;;;;;;24.24;50.18;101096.28;5168390;27;19970;-39
2022/09/06 11:58:08;;;;;;;;;;;;;;;24.25;50.18;101092.34;5147751;27;20026;-40
2022/09/06 12:00:33;;;;;;;;;;;;;;;24.26;50.14;101082.03;5149468;27;20052;-41
2022/09/06 12:02:59;;;;;;;;;;;;;;;24.25;50.19;101080.38;5175059;27;19922;-39
2022/09/06 12:06:04;;;;;;;;;;;;;;;24.24;50.24;101085.13;5154557;27;19934;-39
2022/09/06 12:08:30;;;;;;;;;;;;;;;24.25;50.17;101083.19;5140093;27;20388;-40
2022/09/06 12:10:59;;;;;;;;;;;;;;;24.24;50.20;101085.13;5145171;27;19962;-40
2022/09/06 12:16:09;;;;;;;;;;;;;;;24.24;50.28;101085.13;5156266;27;20038;-39
2022/09/06 12:18:51;;;;;;;;;;;;;;;24.24;50.25;101078.75;5145727;27;20276;-40
2022/09/06 12:21:37;;;;;;;;;;;;;;;24.24;50.27;101079.56;5132201;27;20311;-40
2022/09/06 12:24:03;;;;;;;;;;;;;;;24.24;50.13;101070.41;5136955;27;20006;-40
2022/09/06 12:26:50;;;;;;;;;;;;;;;24.24;50.18;101070.41;5150272;27;20014;-40
2022/09/06 12:29:22;;;;;;;;;;;;;;;24.25;50.11;101070.06;5133480;27;20274;-39
2022/09/06 12:31:51;;;;;;;;;;;;;;;24.24;50.21;101074.00;5148944;27;20373;-39
2022/09/06 12:34:20;;;;;;;;;;;;;;;24.24;50.16;101076.78;5126585;27;20396;-40
2022/09/06 12:36:47;;;;;;;;;;;;;;;24.24;50.33;101065.66;5148531;27;20011;-39
2022/09/06 12:39:12;;;;;;;;;;;;;;;24.24;50.13;101059.28;5149718;27;20364;-39
2022/09/06 12:41:39;;;;;;;;;;;;;;;24.23;50.17;101055.66;5144487;27;19930;-41
2022/09/06 12:44:09;;;;;;;;;;;;;;;24.25;50.11;101055.34;5141548;27;19923;-39
2022/09/06 12:46:34;;;;;;;;;;;;;;;24.24;50.25;101060.09;5144522;27;19931;-42
2022/09/06 12:49:05;;;;;;;;;;;;;;;24.23;50.17;101046.50;5124608;27;19930;-39
2022/09/06 12:51:31;;;;;;;;;;;;;;;24.22;50.32;101042.91;5129122;27;19970;-40
2022/09/06 12:53:59;;;;;;;;;;;;;;;24.23;50.25;101033.41;5129528;27;19975;-39
2022/09/06 12:56:25;;;;;;;;;;;;;;;24.23;50.26;101032.59;5147763;27;20026;-39
2022/09/06 12:58:51;;;;;;;;;;;;;;;24.24;50.13;101031.44;5128660;27;21351;-41